sensor_id;sensor_type;location;lat;lon;timestamp;P1;durP1;ratioP1;P2;durP2;ratioP2
14817;SDS011;7500;57.698;11.986;2023-12-29T00:01:29;44.30;;;6.00;;
14817;SDS011;7500;57.698;11.986;2023-12-29T00:03:56;44.50;;;5.80;;
14817;SDS011;7500;57.698;11.986;2023-12-29T00:06:23;44.37;;;6.53;;
14817;SDS011;7500;57.698;11.986;2023-12-29T00:08:49;43.20;;;6.60;;
14817;SDS011;7500;57.698;11.986;2023-12-29T00:11:17;42.13;;;5.73;;
14817;SDS011;7500;57.698;11.986;2023-12-29T00:13:44;44.63;;;5.17;;
14817;SDS011;7500;57.698;11.986;2023-12-29T00:16:10;45.47;;;5.97;;
14817;SDS011;7500;57.698;11.986;2023-12-29T00:18:37;39.73;;;5.87;;
14817;SDS011;7500;57.698;11.986;2023-12-29T00:21:04;40.50;;;6.60;;
14817;SDS011;7500;57.698;11.986;2023-12-29T00:23:31;32.13;;;5.50;;
14817;SDS011;7500;57.698;11.986;2023-12-29T00:25:57;30.30;;;4.77;;
14817;SDS011;7500;57.698;11.986;2023-12-29T00:28:25;31.67;;;4.33;;
14817;SDS011;7500;57.698;11.986;2023-12-29T00:30:52;31.23;;;5.00;;
14817;SDS011;7500;57.698;11.986;2023-12-29T00:33:18;25.47;;;4.20;;
14817;SDS011;7500;57.698;11.986;2023-12-29T00:35:45;28.57;;;3.87;;
14817;SDS011;7500;57.698;11.986;2023-12-29T00:38:11;23.53;;;4.10;;
14817;SDS011;7500;57.698;11.986;2023-12-29T00:40:38;26.03;;;4.50;;
14817;SDS011;7500;57.698;11.986;2023-12-29T00:43:04;24.37;;;4.03;;
14817;SDS011;7500;57.698;11.986;2023-12-29T00:45:32;24.77;;;4.00;;
14817;SDS011;7500;57.698;11.986;2023-12-29T00:48:01;23.83;;;4.23;;
14817;SDS011;7500;57.698;11.986;2023-12-29T00:50:27;25.90;;;3.83;;
14817;SDS011;7500;57.698;11.986;2023-12-29T00:52:54;25.90;;;4.40;;
14817;SDS011;7500;57.698;11.986;2023-12-29T00:55:20;30.53;;;4.60;;
14817;SDS011;7500;57.698;11.986;2023-12-29T00:57:47;34.97;;;4.03;;
14817;SDS011;7500;57.698;11.986;2023-12-29T01:00:14;29.13;;;4.10;;
14817;SDS011;7500;57.698;11.986;2023-12-29T01:02:42;24.63;;;3.83;;
14817;SDS011;7500;57.698;11.986;2023-12-29T01:05:08;26.13;;;4.00;;
14817;SDS011;7500;57.698;11.986;2023-12-29T01:07:35;25.70;;;3.53;;
14817;SDS011;7500;57.698;11.986;2023-12-29T01:10:01;28.23;;;4.17;;
14817;SDS011;7500;57.698;11.986;2023-12-29T01:12:27;29.90;;;4.90;;
14817;SDS011;7500;57.698;11.986;2023-12-29T01:14:54;35.30;;;4.43;;
14817;SDS011;7500;57.698;11.986;2023-12-29T01:17:20;25.60;;;4.07;;
14817;SDS011;7500;57.698;11.986;2023-12-29T01:19:48;27.67;;;4.33;;
14817;SDS011;7500;57.698;11.986;2023-12-29T01:22:15;32.13;;;3.97;;
14817;SDS011;7500;57.698;11.986;2023-12-29T01:24:41;30.93;;;4.17;;
14817;SDS011;7500;57.698;11.986;2023-12-29T01:27:08;25.60;;;4.00;;
14817;SDS011;7500;57.698;11.986;2023-12-29T01:29:34;29.17;;;4.10;;
14817;SDS011;7500;57.698;11.986;2023-12-29T01:32:01;23.97;;;3.90;;
14817;SDS011;7500;57.698;11.986;2023-12-29T01:34:28;31.63;;;4.57;;
14817;SDS011;7500;57.698;11.986;2023-12-29T01:36:59;29.87;;;4.53;;
14817;SDS011;7500;57.698;11.986;2023-12-29T01:39:25;27.30;;;4.20;;
14817;SDS011;7500;57.698;11.986;2023-12-29T01:41:52;33.50;;;4.63;;
14817;SDS011;7500;57.698;11.986;2023-12-29T01:44:19;37.83;;;4.77;;
14817;SDS011;7500;57.698;11.986;2023-12-29T01:46:46;32.70;;;5.17;;
14817;SDS011;7500;57.698;11.986;2023-12-29T01:49:14;39.90;;;4.53;;
14817;SDS011;7500;57.698;11.986;2023-12-29T01:51:41;31.67;;;4.57;;
14817;SDS011;7500;57.698;11.986;2023-12-29T01:54:10;30.23;;;5.13;;
14817;SDS011;7500;57.698;11.986;2023-12-29T01:56:37;35.47;;;5.23;;
14817;SDS011;7500;57.698;11.986;2023-12-29T01:59:04;33.50;;;5.10;;
14817;SDS011;7500;57.698;11.986;2023-12-29T02:01:30;34.03;;;4.57;;
14817;SDS011;7500;57.698;11.986;2023-12-29T02:03:57;34.53;;;5.70;;
14817;SDS011;7500;57.698;11.986;2023-12-29T02:06:24;26.17;;;4.27;;
14817;SDS011;7500;57.698;11.986;2023-12-29T02:08:51;27.13;;;4.80;;
14817;SDS011;7500;57.698;11.986;2023-12-29T02:11:19;30.67;;;4.80;;
14817;SDS011;7500;57.698;11.986;2023-12-29T02:13:46;29.83;;;4.30;;
14817;SDS011;7500;57.698;11.986;2023-12-29T02:16:14;30.13;;;5.47;;
14817;SDS011;7500;57.698;11.986;2023-12-29T02:18:43;32.97;;;4.97;;
14817;SDS011;7500;57.698;11.986;2023-12-29T02:21:12;36.37;;;5.60;;
14817;SDS011;7500;57.698;11.986;2023-12-29T02:23:39;31.50;;;5.10;;
14817;SDS011;7500;57.698;11.986;2023-12-29T02:26:07;31.47;;;4.87;;
14817;SDS011;7500;57.698;11.986;2023-12-29T02:28:36;44.20;;;5.30;;
14817;SDS011;7500;57.698;11.986;2023-12-29T02:31:06;38.40;;;5.30;;
14817;SDS011;7500;57.698;11.986;2023-12-29T02:33:35;35.57;;;5.10;;
14817;SDS011;7500;57.698;11.986;2023-12-29T02:36:03;39.80;;;5.77;;
14817;SDS011;7500;57.698;11.986;2023-12-29T02:38:30;35.00;;;5.93;;
14817;SDS011;7500;57.698;11.986;2023-12-29T02:40:56;38.93;;;5.40;;
14817;SDS011;7500;57.698;11.986;2023-12-29T02:43:24;44.50;;;5.37;;
14817;SDS011;7500;57.698;11.986;2023-12-29T02:45:51;30.77;;;4.93;;
14817;SDS011;7500;57.698;11.986;2023-12-29T02:48:17;37.53;;;5.93;;
14817;SDS011;7500;57.698;11.986;2023-12-29T02:50:44;44.23;;;5.23;;
14817;SDS011;7500;57.698;11.986;2023-12-29T02:53:10;40.47;;;5.10;;
14817;SDS011;7500;57.698;11.986;2023-12-29T02:55:37;36.17;;;5.30;;
14817;SDS011;7500;57.698;11.986;2023-12-29T02:58:03;42.13;;;5.97;;
14817;SDS011;7500;57.698;11.986;2023-12-29T03:00:31;35.73;;;5.90;;
14817;SDS011;7500;57.698;11.986;2023-12-29T03:02:58;44.53;;;6.03;;
14817;SDS011;7500;57.698;11.986;2023-12-29T03:05:25;38.83;;;5.83;;
14817;SDS011;7500;57.698;11.986;2023-12-29T03:07:51;33.57;;;5.63;;
14817;SDS011;7500;57.698;11.986;2023-12-29T03:10:18;37.37;;;6.30;;
14817;SDS011;7500;57.698;11.986;2023-12-29T03:12:44;39.33;;;5.73;;
14817;SDS011;7500;57.698;11.986;2023-12-29T03:15:11;35.63;;;5.27;;
14817;SDS011;7500;57.698;11.986;2023-12-29T03:17:38;47.80;;;6.47;;
14817;SDS011;7500;57.698;11.986;2023-12-29T03:20:05;41.70;;;6.17;;
14817;SDS011;7500;57.698;11.986;2023-12-29T03:22:32;43.97;;;6.30;;
14817;SDS011;7500;57.698;11.986;2023-12-29T03:24:59;51.73;;;6.13;;
14817;SDS011;7500;57.698;11.986;2023-12-29T03:27:26;40.47;;;5.90;;
14817;SDS011;7500;57.698;11.986;2023-12-29T03:29:52;41.97;;;6.43;;
14817;SDS011;7500;57.698;11.986;2023-12-29T03:32:19;41.43;;;6.10;;
14817;SDS011;7500;57.698;11.986;2023-12-29T03:34:46;52.90;;;6.50;;
14817;SDS011;7500;57.698;11.986;2023-12-29T03:37:13;44.33;;;5.90;;
14817;SDS011;7500;57.698;11.986;2023-12-29T03:39:39;36.20;;;5.77;;
14817;SDS011;7500;57.698;11.986;2023-12-29T03:42:06;44.30;;;7.37;;
14817;SDS011;7500;57.698;11.986;2023-12-29T03:44:32;43.43;;;5.73;;
14817;SDS011;7500;57.698;11.986;2023-12-29T03:46:59;38.07;;;5.97;;
14817;SDS011;7500;57.698;11.986;2023-12-29T03:49:25;47.43;;;6.10;;
14817;SDS011;7500;57.698;11.986;2023-12-29T03:51:53;43.20;;;7.47;;
14817;SDS011;7500;57.698;11.986;2023-12-29T03:54:20;46.83;;;6.03;;
14817;SDS011;7500;57.698;11.986;2023-12-29T03:56:46;45.53;;;6.20;;
14817;SDS011;7500;57.698;11.986;2023-12-29T03:59:13;41.43;;;5.90;;
14817;SDS011;7500;57.698;11.986;2023-12-29T04:01:39;44.60;;;6.43;;
14817;SDS011;7500;57.698;11.986;2023-12-29T04:04:06;42.40;;;6.13;;
14817;SDS011;7500;57.698;11.986;2023-12-29T04:06:32;40.43;;;6.17;;
14817;SDS011;7500;57.698;11.986;2023-12-29T04:09:00;46.77;;;7.20;;
14817;SDS011;7500;57.698;11.986;2023-12-29T04:11:27;48.13;;;6.10;;
14817;SDS011;7500;57.698;11.986;2023-12-29T04:13:53;36.07;;;6.30;;
14817;SDS011;7500;57.698;11.986;2023-12-29T04:16:20;42.37;;;5.67;;
14817;SDS011;7500;57.698;11.986;2023-12-29T04:18:46;49.77;;;6.40;;
14817;SDS011;7500;57.698;11.986;2023-12-29T04:21:13;46.50;;;6.47;;
14817;SDS011;7500;57.698;11.986;2023-12-29T04:23:40;44.60;;;5.93;;
14817;SDS011;7500;57.698;11.986;2023-12-29T04:26:08;39.83;;;5.67;;
14817;SDS011;7500;57.698;11.986;2023-12-29T04:28:34;40.60;;;5.23;;
14817;SDS011;7500;57.698;11.986;2023-12-29T04:31:01;40.90;;;6.13;;
14817;SDS011;7500;57.698;11.986;2023-12-29T04:33:28;33.60;;;5.83;;
14817;SDS011;7500;57.698;11.986;2023-12-29T04:35:54;34.33;;;5.23;;
14817;SDS011;7500;57.698;11.986;2023-12-29T04:38:21;38.03;;;6.03;;
14817;SDS011;7500;57.698;11.986;2023-12-29T04:40:47;34.30;;;6.03;;
14817;SDS011;7500;57.698;11.986;2023-12-29T04:43:15;38.20;;;6.23;;
14817;SDS011;7500;57.698;11.986;2023-12-29T04:45:42;46.57;;;6.13;;
14817;SDS011;7500;57.698;11.986;2023-12-29T04:48:08;38.93;;;5.40;;
14817;SDS011;7500;57.698;11.986;2023-12-29T04:50:35;36.00;;;5.30;;
14817;SDS011;7500;57.698;11.986;2023-12-29T04:53:01;44.67;;;5.60;;
14817;SDS011;7500;57.698;11.986;2023-12-29T04:55:28;32.40;;;5.83;;
14817;SDS011;7500;57.698;11.986;2023-12-29T04:57:54;28.10;;;5.60;;
14817;SDS011;7500;57.698;11.986;2023-12-29T05:00:22;42.07;;;5.97;;
14817;SDS011;7500;57.698;11.986;2023-12-29T05:02:49;34.57;;;5.37;;
14817;SDS011;7500;57.698;11.986;2023-12-29T05:05:15;37.03;;;5.33;;
14817;SDS011;7500;57.698;11.986;2023-12-29T05:07:42;31.53;;;4.90;;
14817;SDS011;7500;57.698;11.986;2023-12-29T05:10:08;35.33;;;5.83;;
14817;SDS011;7500;57.698;11.986;2023-12-29T05:12:35;25.53;;;5.30;;
14817;SDS011;7500;57.698;11.986;2023-12-29T05:15:01;46.73;;;5.80;;
14817;SDS011;7500;57.698;11.986;2023-12-29T05:17:29;32.17;;;5.53;;
14817;SDS011;7500;57.698;11.986;2023-12-29T05:19:56;39.93;;;5.37;;
14817;SDS011;7500;57.698;11.986;2023-12-29T05:22:22;35.93;;;5.10;;
14817;SDS011;7500;57.698;11.986;2023-12-29T05:24:49;26.50;;;4.77;;
14817;SDS011;7500;57.698;11.986;2023-12-29T05:27:15;30.50;;;4.77;;
14817;SDS011;7500;57.698;11.986;2023-12-29T05:29:42;25.50;;;4.57;;
14817;SDS011;7500;57.698;11.986;2023-12-29T05:32:08;26.03;;;5.23;;
14817;SDS011;7500;57.698;11.986;2023-12-29T05:34:36;28.00;;;4.87;;
14817;SDS011;7500;57.698;11.986;2023-12-29T05:37:03;27.47;;;4.60;;
14817;SDS011;7500;57.698;11.986;2023-12-29T05:39:29;26.13;;;5.17;;
14817;SDS011;7500;57.698;11.986;2023-12-29T05:41:56;30.30;;;5.43;;
14817;SDS011;7500;57.698;11.986;2023-12-29T05:44:22;37.57;;;5.27;;
14817;SDS011;7500;57.698;11.986;2023-12-29T05:46:49;36.03;;;5.87;;
14817;SDS011;7500;57.698;11.986;2023-12-29T05:49:16;42.10;;;5.40;;
14817;SDS011;7500;57.698;11.986;2023-12-29T05:51:44;38.07;;;5.27;;
14817;SDS011;7500;57.698;11.986;2023-12-29T05:54:10;31.37;;;5.20;;
14817;SDS011;7500;57.698;11.986;2023-12-29T05:56:37;39.30;;;5.20;;
14817;SDS011;7500;57.698;11.986;2023-12-29T05:59:03;38.17;;;5.57;;
14817;SDS011;7500;57.698;11.986;2023-12-29T06:01:30;30.23;;;5.23;;
14817;SDS011;7500;57.698;11.986;2023-12-29T06:03:56;33.23;;;5.67;;
14817;SDS011;7500;57.698;11.986;2023-12-29T06:06:23;30.17;;;4.73;;
14817;SDS011;7500;57.698;11.986;2023-12-29T06:08:51;29.93;;;5.20;;
14817;SDS011;7500;57.698;11.986;2023-12-29T06:11:17;36.20;;;5.87;;
14817;SDS011;7500;57.698;11.986;2023-12-29T06:13:44;26.87;;;4.77;;
14817;SDS011;7500;57.698;11.986;2023-12-29T06:16:16;34.40;;;4.80;;
14817;SDS011;7500;57.698;11.986;2023-12-29T06:18:43;38.10;;;5.43;;
14817;SDS011;7500;57.698;11.986;2023-12-29T06:21:09;37.53;;;5.80;;
14817;SDS011;7500;57.698;11.986;2023-12-29T06:23:36;34.20;;;5.23;;
14817;SDS011;7500;57.698;11.986;2023-12-29T06:26:04;38.20;;;5.60;;
14817;SDS011;7500;57.698;11.986;2023-12-29T06:28:30;37.83;;;5.20;;
14817;SDS011;7500;57.698;11.986;2023-12-29T06:30:57;30.03;;;4.07;;
14817;SDS011;7500;57.698;11.986;2023-12-29T06:33:24;33.53;;;4.77;;
14817;SDS011;7500;57.698;11.986;2023-12-29T06:35:50;34.43;;;5.43;;
14817;SDS011;7500;57.698;11.986;2023-12-29T06:38:17;38.60;;;5.73;;
14817;SDS011;7500;57.698;11.986;2023-12-29T06:40:43;40.77;;;5.40;;
14817;SDS011;7500;57.698;11.986;2023-12-29T06:43:11;39.47;;;4.73;;
14817;SDS011;7500;57.698;11.986;2023-12-29T06:45:38;35.73;;;5.37;;
14817;SDS011;7500;57.698;11.986;2023-12-29T06:48:05;40.30;;;5.80;;
14817;SDS011;7500;57.698;11.986;2023-12-29T06:50:30;34.50;;;5.23;;
14817;SDS011;7500;57.698;11.986;2023-12-29T06:52:57;34.70;;;5.07;;
14817;SDS011;7500;57.698;11.986;2023-12-29T06:55:24;32.83;;;5.10;;
14817;SDS011;7500;57.698;11.986;2023-12-29T06:57:51;30.87;;;4.60;;
14817;SDS011;7500;57.698;11.986;2023-12-29T07:00:19;34.93;;;5.57;;
14817;SDS011;7500;57.698;11.986;2023-12-29T07:02:45;33.70;;;4.80;;
14817;SDS011;7500;57.698;11.986;2023-12-29T07:05:12;39.60;;;4.93;;
14817;SDS011;7500;57.698;11.986;2023-12-29T07:07:39;34.13;;;5.40;;
14817;SDS011;7500;57.698;11.986;2023-12-29T07:10:06;34.50;;;4.63;;
14817;SDS011;7500;57.698;11.986;2023-12-29T07:12:32;28.83;;;4.80;;
14817;SDS011;7500;57.698;11.986;2023-12-29T07:14:59;29.83;;;4.70;;
14817;SDS011;7500;57.698;11.986;2023-12-29T07:17:27;24.53;;;4.03;;
14817;SDS011;7500;57.698;11.986;2023-12-29T07:19:53;37.03;;;5.03;;
14817;SDS011;7500;57.698;11.986;2023-12-29T07:22:20;29.40;;;4.73;;
14817;SDS011;7500;57.698;11.986;2023-12-29T07:24:46;26.40;;;4.27;;
14817;SDS011;7500;57.698;11.986;2023-12-29T07:27:13;40.83;;;5.03;;
14817;SDS011;7500;57.698;11.986;2023-12-29T07:29:39;31.37;;;4.73;;
14817;SDS011;7500;57.698;11.986;2023-12-29T07:32:06;33.70;;;5.03;;
14817;SDS011;7500;57.698;11.986;2023-12-29T07:34:34;34.80;;;5.23;;
14817;SDS011;7500;57.698;11.986;2023-12-29T07:37:00;29.13;;;4.23;;
14817;SDS011;7500;57.698;11.986;2023-12-29T07:39:27;29.67;;;4.97;;
14817;SDS011;7500;57.698;11.986;2023-12-29T07:41:54;29.30;;;5.20;;
14817;SDS011;7500;57.698;11.986;2023-12-29T07:44:20;39.30;;;5.63;;
14817;SDS011;7500;57.698;11.986;2023-12-29T07:46:47;33.80;;;6.07;;
14817;SDS011;7500;57.698;11.986;2023-12-29T07:49:14;32.97;;;5.90;;
14817;SDS011;7500;57.698;11.986;2023-12-29T07:51:45;25.87;;;5.07;;
14817;SDS011;7500;57.698;11.986;2023-12-29T07:54:11;35.03;;;5.00;;
14817;SDS011;7500;57.698;11.986;2023-12-29T07:56:38;24.40;;;4.30;;
14817;SDS011;7500;57.698;11.986;2023-12-29T07:59:05;29.03;;;5.20;;
14817;SDS011;7500;57.698;11.986;2023-12-29T08:01:31;32.80;;;5.17;;
14817;SDS011;7500;57.698;11.986;2023-12-29T08:03:58;33.43;;;5.47;;
14817;SDS011;7500;57.698;11.986;2023-12-29T08:06:24;36.50;;;5.20;;
14817;SDS011;7500;57.698;11.986;2023-12-29T08:08:54;39.07;;;5.50;;
14817;SDS011;7500;57.698;11.986;2023-12-29T08:11:21;35.40;;;5.53;;
14817;SDS011;7500;57.698;11.986;2023-12-29T08:13:48;44.40;;;5.30;;
14817;SDS011;7500;57.698;11.986;2023-12-29T08:16:14;34.47;;;5.17;;
14817;SDS011;7500;57.698;11.986;2023-12-29T08:18:42;31.47;;;5.17;;
14817;SDS011;7500;57.698;11.986;2023-12-29T08:21:09;34.67;;;5.83;;
14817;SDS011;7500;57.698;11.986;2023-12-29T08:23:41;35.77;;;5.07;;
14817;SDS011;7500;57.698;11.986;2023-12-29T08:26:09;34.23;;;5.63;;
14817;SDS011;7500;57.698;11.986;2023-12-29T08:28:36;33.67;;;5.50;;
14817;SDS011;7500;57.698;11.986;2023-12-29T08:31:02;43.07;;;6.10;;
14817;SDS011;7500;57.698;11.986;2023-12-29T08:33:30;30.63;;;5.20;;
14817;SDS011;7500;57.698;11.986;2023-12-29T08:35:57;39.13;;;6.00;;
14817;SDS011;7500;57.698;11.986;2023-12-29T08:38:25;38.43;;;5.57;;
14817;SDS011;7500;57.698;11.986;2023-12-29T08:40:52;31.03;;;4.83;;
14817;SDS011;7500;57.698;11.986;2023-12-29T08:43:20;31.93;;;5.33;;
14817;SDS011;7500;57.698;11.986;2023-12-29T08:45:47;38.50;;;5.70;;
14817;SDS011;7500;57.698;11.986;2023-12-29T08:48:13;39.77;;;5.93;;
14817;SDS011;7500;57.698;11.986;2023-12-29T08:50:39;34.33;;;5.13;;
14817;SDS011;7500;57.698;11.986;2023-12-29T08:53:05;51.17;;;6.60;;
14817;SDS011;7500;57.698;11.986;2023-12-29T08:55:32;30.80;;;5.10;;
14817;SDS011;7500;57.698;11.986;2023-12-29T08:57:58;29.73;;;4.50;;
14817;SDS011;7500;57.698;11.986;2023-12-29T09:00:27;36.87;;;5.53;;
14817;SDS011;7500;57.698;11.986;2023-12-29T09:02:55;31.30;;;4.57;;
14817;SDS011;7500;57.698;11.986;2023-12-29T09:05:21;33.93;;;4.73;;
14817;SDS011;7500;57.698;11.986;2023-12-29T09:07:48;26.23;;;4.60;;
14817;SDS011;7500;57.698;11.986;2023-12-29T09:10:15;36.23;;;4.93;;
14817;SDS011;7500;57.698;11.986;2023-12-29T09:12:41;28.83;;;4.80;;
14817;SDS011;7500;57.698;11.986;2023-12-29T09:15:09;23.73;;;4.30;;
14817;SDS011;7500;57.698;11.986;2023-12-29T09:17:37;29.63;;;4.63;;
14817;SDS011;7500;57.698;11.986;2023-12-29T09:20:03;31.80;;;4.50;;
14817;SDS011;7500;57.698;11.986;2023-12-29T09:22:31;22.17;;;3.97;;
14817;SDS011;7500;57.698;11.986;2023-12-29T09:24:57;27.37;;;4.17;;
14817;SDS011;7500;57.698;11.986;2023-12-29T09:27:24;26.93;;;4.30;;
14817;SDS011;7500;57.698;11.986;2023-12-29T09:29:51;34.77;;;4.47;;
14817;SDS011;7500;57.698;11.986;2023-12-29T09:32:17;29.10;;;4.43;;
14817;SDS011;7500;57.698;11.986;2023-12-29T09:34:45;29.47;;;3.67;;
14817;SDS011;7500;57.698;11.986;2023-12-29T09:37:12;28.53;;;4.97;;
14817;SDS011;7500;57.698;11.986;2023-12-29T09:39:39;26.37;;;3.73;;
14817;SDS011;7500;57.698;11.986;2023-12-29T09:42:06;23.27;;;3.83;;
14817;SDS011;7500;57.698;11.986;2023-12-29T09:44:33;30.33;;;4.53;;
14817;SDS011;7500;57.698;11.986;2023-12-29T09:47:03;28.30;;;3.93;;
14817;SDS011;7500;57.698;11.986;2023-12-29T09:49:30;27.03;;;4.10;;
14817;SDS011;7500;57.698;11.986;2023-12-29T09:51:59;24.27;;;4.03;;
14817;SDS011;7500;57.698;11.986;2023-12-29T09:54:26;22.20;;;3.80;;
14817;SDS011;7500;57.698;11.986;2023-12-29T09:56:53;18.30;;;3.43;;
14817;SDS011;7500;57.698;11.986;2023-12-29T09:59:19;26.17;;;3.87;;
14817;SDS011;7500;57.698;11.986;2023-12-29T10:01:47;21.73;;;3.83;;
14817;SDS011;7500;57.698;11.986;2023-12-29T10:04:14;24.70;;;4.20;;
14817;SDS011;7500;57.698;11.986;2023-12-29T10:06:41;25.37;;;3.90;;
14817;SDS011;7500;57.698;11.986;2023-12-29T10:09:12;25.10;;;5.03;;
14817;SDS011;7500;57.698;11.986;2023-12-29T10:11:40;27.63;;;4.23;;
14817;SDS011;7500;57.698;11.986;2023-12-29T10:14:09;22.47;;;4.53;;
14817;SDS011;7500;57.698;11.986;2023-12-29T10:16:41;22.90;;;4.43;;
14817;SDS011;7500;57.698;11.986;2023-12-29T10:19:10;19.67;;;3.80;;
14817;SDS011;7500;57.698;11.986;2023-12-29T10:21:38;24.23;;;3.83;;
14817;SDS011;7500;57.698;11.986;2023-12-29T10:24:10;23.57;;;4.27;;
14817;SDS011;7500;57.698;11.986;2023-12-29T10:26:40;27.30;;;4.53;;
14817;SDS011;7500;57.698;11.986;2023-12-29T10:29:08;25.27;;;4.43;;
14817;SDS011;7500;57.698;11.986;2023-12-29T10:31:35;21.97;;;3.87;;
14817;SDS011;7500;57.698;11.986;2023-12-29T10:34:16;21.07;;;3.63;;
14817;SDS011;7500;57.698;11.986;2023-12-29T10:36:46;27.30;;;4.33;;
14817;SDS011;7500;57.698;11.986;2023-12-29T10:39:12;25.60;;;3.67;;
14817;SDS011;7500;57.698;11.986;2023-12-29T10:41:41;17.97;;;3.60;;
14817;SDS011;7500;57.698;11.986;2023-12-29T10:44:08;24.47;;;4.27;;
14817;SDS011;7500;57.698;11.986;2023-12-29T10:46:34;25.00;;;4.07;;
14817;SDS011;7500;57.698;11.986;2023-12-29T10:49:06;24.07;;;4.20;;
14817;SDS011;7500;57.698;11.986;2023-12-29T10:51:33;18.40;;;3.20;;
14817;SDS011;7500;57.698;11.986;2023-12-29T10:53:59;18.93;;;3.60;;
14817;SDS011;7500;57.698;11.986;2023-12-29T10:56:26;24.90;;;4.30;;
14817;SDS011;7500;57.698;11.986;2023-12-29T10:59:01;27.27;;;3.87;;
14817;SDS011;7500;57.698;11.986;2023-12-29T11:01:28;17.33;;;3.70;;
14817;SDS011;7500;57.698;11.986;2023-12-29T11:03:58;21.57;;;3.63;;
14817;SDS011;7500;57.698;11.986;2023-12-29T11:06:26;18.93;;;3.40;;
14817;SDS011;7500;57.698;11.986;2023-12-29T11:08:53;18.00;;;3.10;;
14817;SDS011;7500;57.698;11.986;2023-12-29T11:11:19;27.57;;;4.50;;
14817;SDS011;7500;57.698;11.986;2023-12-29T11:13:46;15.47;;;3.27;;
14817;SDS011;7500;57.698;11.986;2023-12-29T11:16:14;24.93;;;3.83;;
14817;SDS011;7500;57.698;11.986;2023-12-29T11:18:43;15.27;;;2.40;;
14817;SDS011;7500;57.698;11.986;2023-12-29T11:21:11;19.83;;;3.83;;
14817;SDS011;7500;57.698;11.986;2023-12-29T11:23:38;22.40;;;3.53;;
14817;SDS011;7500;57.698;11.986;2023-12-29T11:26:04;18.37;;;3.57;;
14817;SDS011;7500;57.698;11.986;2023-12-29T11:28:32;30.40;;;4.23;;
14817;SDS011;7500;57.698;11.986;2023-12-29T11:30:58;25.97;;;4.30;;
14817;SDS011;7500;57.698;11.986;2023-12-29T11:33:27;21.43;;;3.70;;
14817;SDS011;7500;57.698;11.986;2023-12-29T11:35:58;14.23;;;3.00;;
14817;SDS011;7500;57.698;11.986;2023-12-29T11:38:29;18.27;;;3.50;;
14817;SDS011;7500;57.698;11.986;2023-12-29T11:40:57;16.50;;;3.40;;
14817;SDS011;7500;57.698;11.986;2023-12-29T11:43:27;18.97;;;3.40;;
14817;SDS011;7500;57.698;11.986;2023-12-29T11:45:53;13.83;;;3.00;;
14817;SDS011;7500;57.698;11.986;2023-12-29T11:51:03;19.07;;;3.30;;
14817;SDS011;7500;57.698;11.986;2023-12-29T11:53:50;18.03;;;3.50;;
14817;SDS011;7500;57.698;11.986;2023-12-29T11:56:16;12.97;;;2.53;;
14817;SDS011;7500;57.698;11.986;2023-12-29T11:58:43;16.70;;;3.10;;
14817;SDS011;7500;57.698;11.986;2023-12-29T12:01:09;14.90;;;2.77;;
14817;SDS011;7500;57.698;11.986;2023-12-29T12:03:36;14.17;;;2.80;;
14817;SDS011;7500;57.698;11.986;2023-12-29T12:06:04;14.27;;;3.27;;
14817;SDS011;7500;57.698;11.986;2023-12-29T12:08:31;15.90;;;2.43;;
14817;SDS011;7500;57.698;11.986;2023-12-29T12:13:44;17.87;;;2.73;;
14817;SDS011;7500;57.698;11.986;2023-12-29T12:16:46;11.80;;;3.10;;
14817;SDS011;7500;57.698;11.986;2023-12-29T12:19:09;12.07;;;2.83;;
14817;SDS011;7500;57.698;11.986;2023-12-29T12:21:37;13.33;;;2.50;;
14817;SDS011;7500;57.698;11.986;2023-12-29T12:24:04;14.37;;;2.50;;
14817;SDS011;7500;57.698;11.986;2023-12-29T12:26:31;14.83;;;2.97;;
14817;SDS011;7500;57.698;11.986;2023-12-29T12:28:57;12.07;;;2.57;;
14817;SDS011;7500;57.698;11.986;2023-12-29T12:31:24;15.03;;;2.80;;
14817;SDS011;7500;57.698;11.986;2023-12-29T12:33:53;12.67;;;2.23;;
14817;SDS011;7500;57.698;11.986;2023-12-29T12:36:21;10.27;;;2.13;;
14817;SDS011;7500;57.698;11.986;2023-12-29T12:38:52;13.87;;;2.83;;
14817;SDS011;7500;57.698;11.986;2023-12-29T12:41:18;11.17;;;2.73;;
14817;SDS011;7500;57.698;11.986;2023-12-29T12:43:46;11.67;;;2.73;;
14817;SDS011;7500;57.698;11.986;2023-12-29T12:46:16;10.10;;;2.27;;
14817;SDS011;7500;57.698;11.986;2023-12-29T12:48:43;11.00;;;2.63;;
14817;SDS011;7500;57.698;11.986;2023-12-29T12:51:10;11.57;;;2.70;;
14817;SDS011;7500;57.698;11.986;2023-12-29T12:53:39;16.27;;;3.00;;
14817;SDS011;7500;57.698;11.986;2023-12-29T12:56:07;17.50;;;2.90;;
14817;SDS011;7500;57.698;11.986;2023-12-29T12:58:34;15.17;;;2.40;;
14817;SDS011;7500;57.698;11.986;2023-12-29T13:01:00;10.97;;;2.50;;
14817;SDS011;7500;57.698;11.986;2023-12-29T13:03:27;13.97;;;3.17;;
14817;SDS011;7500;57.698;11.986;2023-12-29T13:05:54;15.20;;;2.67;;
14817;SDS011;7500;57.698;11.986;2023-12-29T13:08:23;12.47;;;2.83;;
14817;SDS011;7500;57.698;11.986;2023-12-29T13:10:50;15.20;;;2.70;;
14817;SDS011;7500;57.698;11.986;2023-12-29T13:13:18;17.50;;;3.13;;
14817;SDS011;7500;57.698;11.986;2023-12-29T13:15:46;14.77;;;3.07;;
14817;SDS011;7500;57.698;11.986;2023-12-29T13:18:12;14.33;;;2.87;;
14817;SDS011;7500;57.698;11.986;2023-12-29T13:20:44;19.20;;;2.80;;
14817;SDS011;7500;57.698;11.986;2023-12-29T13:23:12;17.20;;;3.50;;
14817;SDS011;7500;57.698;11.986;2023-12-29T13:25:39;15.10;;;2.90;;
14817;SDS011;7500;57.698;11.986;2023-12-29T13:28:06;15.47;;;3.00;;
14817;SDS011;7500;57.698;11.986;2023-12-29T13:30:34;20.97;;;3.30;;
14817;SDS011;7500;57.698;11.986;2023-12-29T13:33:05;15.33;;;3.40;;
14817;SDS011;7500;57.698;11.986;2023-12-29T13:35:36;21.47;;;3.60;;
14817;SDS011;7500;57.698;11.986;2023-12-29T13:38:05;17.73;;;2.80;;
14817;SDS011;7500;57.698;11.986;2023-12-29T13:40:34;16.23;;;3.20;;
14817;SDS011;7500;57.698;11.986;2023-12-29T13:43:01;12.60;;;2.60;;
14817;SDS011;7500;57.698;11.986;2023-12-29T13:45:29;15.47;;;3.43;;
14817;SDS011;7500;57.698;11.986;2023-12-29T13:47:57;12.83;;;2.97;;
14817;SDS011;7500;57.698;11.986;2023-12-29T13:50:25;11.87;;;2.60;;
14817;SDS011;7500;57.698;11.986;2023-12-29T13:52:51;11.67;;;2.50;;
14817;SDS011;7500;57.698;11.986;2023-12-29T13:55:20;11.10;;;2.70;;
14817;SDS011;7500;57.698;11.986;2023-12-29T13:57:47;8.30;;;2.07;;
14817;SDS011;7500;57.698;11.986;2023-12-29T14:00:14;10.60;;;1.90;;
14817;SDS011;7500;57.698;11.986;2023-12-29T14:02:41;12.67;;;2.33;;
14817;SDS011;7500;57.698;11.986;2023-12-29T14:05:12;8.80;;;1.90;;
14817;SDS011;7500;57.698;11.986;2023-12-29T14:07:43;10.23;;;2.10;;
14817;SDS011;7500;57.698;11.986;2023-12-29T14:10:10;15.03;;;2.40;;
14817;SDS011;7500;57.698;11.986;2023-12-29T14:12:37;13.30;;;2.50;;
14817;SDS011;7500;57.698;11.986;2023-12-29T14:15:04;15.43;;;2.30;;
14817;SDS011;7500;57.698;11.986;2023-12-29T14:17:30;15.50;;;2.67;;
14817;SDS011;7500;57.698;11.986;2023-12-29T14:19:58;13.13;;;2.60;;
14817;SDS011;7500;57.698;11.986;2023-12-29T14:22:32;20.90;;;2.80;;
14817;SDS011;7500;57.698;11.986;2023-12-29T14:24:59;21.53;;;3.20;;
14817;SDS011;7500;57.698;11.986;2023-12-29T14:27:27;18.27;;;2.77;;
14817;SDS011;7500;57.698;11.986;2023-12-29T14:29:53;13.20;;;3.20;;
14817;SDS011;7500;57.698;11.986;2023-12-29T14:32:20;16.47;;;2.63;;
14817;SDS011;7500;57.698;11.986;2023-12-29T14:34:47;16.50;;;2.87;;
14817;SDS011;7500;57.698;11.986;2023-12-29T14:37:17;18.13;;;2.93;;
14817;SDS011;7500;57.698;11.986;2023-12-29T14:39:48;19.53;;;3.00;;
14817;SDS011;7500;57.698;11.986;2023-12-29T14:42:14;19.77;;;3.10;;